Time;durP1;ratioP1;P1;durP2;ratioP2;P2;SDS_P1;SDS_P2;PMS_P1;PMS_P2;Temp;Humidity;BMP_temperature;BMP_pressure;BME280_temperature;BME280_humidity;BME280_pressure;Samples;Min_cycle;Max_cycle;Signal;HPM_P1;HPM_P2
2022/10/26 00:02:53;;;;;;;149.13;141.05;;;;;;;;;;10164927;28;20048;-70
2022/10/26 00:07:50;;;;;;;151.93;143.75;;;;;;;;;;10149221;28;20050;-70
2022/10/26 00:12:49;;;;;;;154.07;145.80;;;;;;;;;;10164388;28;20054;-70
2022/10/26 00:17:47;;;;;;;152.13;144.13;;;;;;;;;;10167244;28;20132;-70
2022/10/26 00:22:43;;;;;;;152.57;144.38;;;;;;;;;;10163318;28;20419;-70
2022/10/26 00:27:40;;;;;;;157.70;149.23;;;;;;;;;;10166328;28;20042;-70
2022/10/26 00:32:36;;;;;;;150.35;142.55;;;;;;;;;;10160466;28;20057;-70
2022/10/26 00:37:32;;;;;;;156.07;147.65;;;;;;;;;;10149751;28;20039;-70
2022/10/26 00:42:28;;;;;;;150.88;142.55;;;;;;;;;;10159441;28;20416;-70
2022/10/26 00:47:25;;;;;;;149.25;140.95;;;;;;;;;;10150817;28;20046;-70
2022/10/26 00:52:22;;;;;;;153.40;145.18;;;;;;;;;;10171934;28;20056;-70
2022/10/26 00:57:18;;;;;;;151.95;143.45;;;;;;;;;;10161054;28;20053;-70
2022/10/26 01:02:14;;;;;;;149.13;141.10;;;;;;;;;;10155777;28;20498;-70
2022/10/26 01:07:11;;;;;;;150.98;142.75;;;;;;;;;;10146838;28;20053;-70
2022/10/26 01:12:07;;;;;;;155.60;147.13;;;;;;;;;;10151180;28;20045;-70
2022/10/26 01:17:06;;;;;;;151.35;143.10;;;;;;;;;;10153806;28;20492;-70
2022/10/26 01:22:03;;;;;;;151.55;143.15;;;;;;;;;;10157025;28;20038;-70
2022/10/26 01:26:59;;;;;;;145.07;137.52;;;;;;;;;;10143298;28;20050;-70
2022/10/26 01:31:57;;;;;;;146.65;138.55;;;;;;;;;;10158474;28;20184;-70
2022/10/26 01:36:54;;;;;;;147.90;140.07;;;;;;;;;;10151803;28;20427;-70
2022/10/26 01:41:55;;;;;;;147.65;139.65;;;;;;;;;;10169502;28;20679;-70
2022/10/26 01:46:52;;;;;;;147.10;139.02;;;;;;;;;;10160956;28;20053;-70
2022/10/26 01:51:49;;;;;;;151.68;143.32;;;;;;;;;;10167230;28;20710;-70
2022/10/26 01:56:48;;;;;;;148.18;140.20;;;;;;;;;;10166130;28;20053;-70
2022/10/26 02:01:51;;;;;;;143.93;135.93;;;;;;;;;;10163287;28;20069;-70
2022/10/26 02:07:07;;;;;;;145.35;137.50;;;;;;;;;;10162172;28;20527;-70
2022/10/26 02:12:27;;;;;;;147.13;138.93;;;;;;;;;;10159890;28;20044;-70
2022/10/26 02:17:27;;;;;;;136.75;129.20;;;;;;;;;;10167076;28;20046;-70
2022/10/26 02:22:27;;;;;;;144.82;136.50;;;;;;;;;;10164720;28;20065;-70
2022/10/26 02:27:30;;;;;;;145.52;137.43;;;;;;;;;;10161084;28;20046;-70
2022/10/26 02:32:27;;;;;;;148.98;140.65;;;;;;;;;;10151074;28;20424;-69
2022/10/26 02:37:25;;;;;;;148.40;140.20;;;;;;;;;;10164712;28;20046;-70
2022/10/26 02:42:22;;;;;;;149.38;140.93;;;;;;;;;;10165666;28;20052;-70
2022/10/26 02:47:19;;;;;;;147.07;138.75;;;;;;;;;;10155287;28;20119;-70
2022/10/26 02:52:21;;;;;;;141.73;133.80;;;;;;;;;;10160063;28;20049;-70
2022/10/26 02:57:19;;;;;;;137.77;129.90;;;;;;;;;;10167245;28;20045;-70
2022/10/26 03:02:16;;;;;;;141.52;133.32;;;;;;;;;;10160049;28;20061;-71
2022/10/26 03:07:18;;;;;;;144.48;135.07;;;;;;;;;;10170038;28;20057;-70
2022/10/26 03:12:15;;;;;;;149.93;141.02;;;;;;;;;;10155096;28;20497;-70
2022/10/26 03:17:11;;;;;;;153.05;144.07;;;;;;;;;;10165505;28;20052;-70
2022/10/26 03:22:07;;;;;;;151.98;143.32;;;;;;;;;;10167620;28;20038;-70
2022/10/26 03:27:03;;;;;;;153.40;144.70;;;;;;;;;;10144837;28;20048;-70
2022/10/26 03:32:00;;;;;;;153.93;144.63;;;;;;;;;;10136982;28;21922;-69
2022/10/26 03:36:56;;;;;;;152.77;144.18;;;;;;;;;;10140922;28;20054;-70
2022/10/26 03:41:54;;;;;;;154.77;145.70;;;;;;;;;;10141239;28;20041;-70
2022/10/26 03:46:50;;;;;;;146.18;137.68;;;;;;;;;;10138721;28;20042;-70
2022/10/26 03:51:46;;;;;;;156.52;147.35;;;;;;;;;;10152395;28;20058;-71
2022/10/26 03:56:42;;;;;;;148.70;140.30;;;;;;;;;;10150906;28;20043;-70
2022/10/26 04:01:39;;;;;;;145.27;136.23;;;;;;;;;;10159488;28;20049;-70
2022/10/26 04:06:35;;;;;;;144.68;135.65;;;;;;;;;;10153014;28;20038;-70
2022/10/26 04:11:31;;;;;;;153.55;143.98;;;;;;;;;;10157723;28;20500;-70
2022/10/26 04:16:28;;;;;;;146.20;136.38;;;;;;;;;;10148262;28;20058;-69
2022/10/26 04:21:28;;;;;;;145.85;136.55;;;;;;;;;;10135289;28;20566;-70
2022/10/26 04:26:25;;;;;;;145.25;135.70;;;;;;;;;;10132318;28;20050;-69
2022/10/26 04:31:21;;;;;;;143.85;134.40;;;;;;;;;;10140902;28;20042;-70
2022/10/26 04:36:17;;;;;;;144.63;135.02;;;;;;;;;;10149511;28;20054;-70
2022/10/26 04:41:14;;;;;;;159.13;148.93;;;;;;;;;;10155491;28;20041;-70
2022/10/26 04:46:12;;;;;;;148.45;139.15;;;;;;;;;;10141563;28;20051;-69
2022/10/26 04:51:12;;;;;;;152.55;142.38;;;;;;;;;;10149484;28;20108;-70
2022/10/26 04:56:08;;;;;;;150.70;141.30;;;;;;;;;;10160101;28;20058;-69
2022/10/26 05:01:04;;;;;;;149.32;140.23;;;;;;;;;;10164936;28;20052;-70
2022/10/26 05:06:01;;;;;;;150.38;141.23;;;;;;;;;;10155362;28;20045;-70
2022/10/26 05:10:57;;;;;;;146.18;137.32;;;;;;;;;;10164320;28;20050;-70
2022/10/26 05:15:53;;;;;;;140.32;131.20;;;;;;;;;;10154038;28;20064;-70
2022/10/26 05:20:51;;;;;;;136.65;127.65;;;;;;;;;;10172400;28;20049;-70
2022/10/26 05:25:48;;;;;;;136.57;128.13;;;;;;;;;;10145975;28;20050;-70
2022/10/26 05:30:45;;;;;;;134.02;125.53;;;;;;;;;;10154826;28;20042;-70
2022/10/26 05:35:41;;;;;;;137.95;129.30;;;;;;;;;;10154879;28;20046;-70
2022/10/26 05:40:37;;;;;;;137.95;129.07;;;;;;;;;;10146865;28;20420;-70
2022/10/26 05:45:33;;;;;;;137.38;128.73;;;;;;;;;;10155463;28;20054;-70
2022/10/26 05:50:30;;;;;;;140.52;131.63;;;;;;;;;;10152037;28;20051;-69
2022/10/26 05:55:26;;;;;;;141.25;131.60;;;;;;;;;;10139469;28;20043;-70
2022/10/26 06:00:24;;;;;;;144.88;135.23;;;;;;;;;;10166711;28;20507;-70
2022/10/26 06:05:21;;;;;;;140.68;131.80;;;;;;;;;;10145478;28;20051;-70
2022/10/26 06:10:18;;;;;;;144.02;134.52;;;;;;;;;;10161013;28;20425;-70
2022/10/26 06:15:17;;;;;;;136.43;127.13;;;;;;;;;;10155654;28;20048;-70
2022/10/26 06:20:13;;;;;;;139.50;130.27;;;;;;;;;;10164724;28;20414;-70
2022/10/26 06:25:28;;;;;;;143.90;134.23;;;;;;;;;;10155864;28;20050;-69
2022/10/26 06:30:24;;;;;;;139.00;129.52;;;;;;;;;;10149445;28;20042;-69
2022/10/26 06:35:36;;;;;;;143.52;133.70;;;;;;;;;;10159001;28;20048;-70
2022/10/26 06:40:34;;;;;;;142.55;133.07;;;;;;;;;;10151545;28;20053;-70
2022/10/26 06:45:30;;;;;;;141.52;132.10;;;;;;;;;;10157800;28;20046;-70
2022/10/26 06:50:26;;;;;;;144.88;134.55;;;;;;;;;;10157854;28;20421;-69
2022/10/26 06:55:23;;;;;;;143.80;134.10;;;;;;;;;;10167742;28;20493;-70
2022/10/26 07:00:20;;;;;;;145.77;136.55;;;;;;;;;;10167732;28;20493;-69
2022/10/26 07:05:17;;;;;;;137.15;128.07;;;;;;;;;;10154088;28;20142;-70
2022/10/26 07:10:14;;;;;;;142.30;132.75;;;;;;;;;;10155130;28;20042;-69
2022/10/26 07:15:10;;;;;;;144.23;134.15;;;;;;;;;;10149516;28;20047;-69
2022/10/26 07:20:07;;;;;;;140.15;130.93;;;;;;;;;;10170130;28;20062;-70
2022/10/26 07:25:03;;;;;;;137.95;128.88;;;;;;;;;;10160968;28;20053;-70
2022/10/26 07:30:00;;;;;;;142.45;132.75;;;;;;;;;;10154814;28;20042;-69
2022/10/26 07:34:56;;;;;;;147.05;137.15;;;;;;;;;;10158532;28;20042;-70
2022/10/26 07:39:53;;;;;;;141.43;132.15;;;;;;;;;;10167579;28;20274;-70
2022/10/26 07:44:49;;;;;;;143.77;133.75;;;;;;;;;;10163446;28;20049;-70
2022/10/26 07:49:45;;;;;;;144.05;134.20;;;;;;;;;;10145308;28;20054;-69
2022/10/26 07:54:41;;;;;;;138.10;128.50;;;;;;;;;;10163824;28;20069;-70
2022/10/26 07:59:37;;;;;;;142.70;133.05;;;;;;;;;;10154153;28;20054;-70
2022/10/26 08:04:34;;;;;;;141.70;131.95;;;;;;;;;;10167232;28;20050;-70
2022/10/26 08:09:30;;;;;;;136.32;126.47;;;;;;;;;;10157685;28;20045;-69
2022/10/26 08:14:26;;;;;;;139.23;129.75;;;;;;;;;;10156474;28;20417;-70
2022/10/26 08:19:22;;;;;;;137.93;128.50;;;;;;;;;;10165539;28;20042;-70
2022/10/26 08:24:18;;;;;;;137.77;128.02;;;;;;;;;;10159742;28;20042;-70
2022/10/26 08:29:15;;;;;;;138.15;128.57;;;;;;;;;;10146676;28;20096;-70
2022/10/26 08:34:11;;;;;;;138.18;129.10;;;;;;;;;;10162805;28;20034;-70
2022/10/26 08:39:07;;;;;;;143.55;134.02;;;;;;;;;;10163873;28;20056;-70
2022/10/26 08:44:09;;;;;;;147.18;137.32;;;;;;;;;;10165315;28;20046;-70
2022/10/26 08:49:24;;;;;;;149.73;139.50;;;;;;;;;;10148653;28;20440;-70
2022/10/26 08:54:41;;;;;;;143.68;133.82;;;;;;;;;;10166351;28;20042;-70
2022/10/26 08:59:39;;;;;;;147.10;137.40;;;;;;;;;;10156553;28;20054;-69
2022/10/26 09:04:35;;;;;;;144.85;135.05;;;;;;;;;;10147357;28;20042;-69
2022/10/26 09:09:31;;;;;;;146.85;137.05;;;;;;;;;;10159233;28;20046;-69
2022/10/26 09:14:41;;;;;;;146.63;137.30;;;;;;;;;;10166969;28;20061;-70
2022/10/26 09:19:56;;;;;;;157.57;147.35;;;;;;;;;;10152259;28;20046;-69
2022/10/26 09:24:53;;;;;;;152.90;142.98;;;;;;;;;;10156629;28;20041;-70
2022/10/26 09:29:50;;;;;;;148.40;138.68;;;;;;;;;;10166417;28;20045;-69
2022/10/26 09:34:51;;;;;;;151.20;141.38;;;;;;;;;;10167990;28;20042;-70
2022/10/26 09:39:54;;;;;;;151.25;141.52;;;;;;;;;;10168435;28;20050;-69
2022/10/26 09:44:56;;;;;;;156.15;147.07;;;;;;;;;;10154945;28;20060;-69
2022/10/26 09:49:55;;;;;;;142.33;133.53;;;;;;;;;;10142099;28;20042;-69
2022/10/26 09:54:51;;;;;;;128.88;121.40;;;;;;;;;;10160268;28;20042;-69
2022/10/26 09:59:49;;;;;;;127.55;120.45;;;;;;;;;;10149282;28;20070;-69
2022/10/26 10:04:46;;;;;;;116.00;109.60;;;;;;;;;;10158630;28;20050;-69
2022/10/26 10:09:42;;;;;;;106.05;100.25;;;;;;;;;;10151140;28;20393;-69
2022/10/26 10:14:39;;;;;;;99.45;93.75;;;;;;;;;;10178615;28;20049;-69
2022/10/26 10:19:36;;;;;;;92.72;87.55;;;;;;;;;;10153514;28;20050;-69
2022/10/26 10:24:34;;;;;;;83.35;78.45;;;;;;;;;;10169923;28;20058;-69
2022/10/26 10:29:30;;;;;;;77.22;72.72;;;;;;;;;;10181932;28;20049;-69
2022/10/26 10:34:29;;;;;;;71.07;66.90;;;;;;;;;;10175694;28;20057;-69
2022/10/26 10:39:39;;;;;;;60.85;57.15;;;;;;;;;;10161927;28;20527;-69
2022/10/26 10:44:35;;;;;;;56.35;52.95;;;;;;;;;;10165357;28;20416;-70
2022/10/26 10:49:32;;;;;;;55.33;51.85;;;;;;;;;;10145584;28;20053;-69
2022/10/26 10:54:30;;;;;;;46.05;43.40;;;;;;;;;;10159568;28;20048;-69
2022/10/26 10:59:34;;;;;;;49.72;46.53;;;;;;;;;;10156095;28;20403;-69
2022/10/26 11:04:32;;;;;;;45.75;42.50;;;;;;;;;;10162601;28;20049;-69
2022/10/26 11:09:30;;;;;;;43.05;40.22;;;;;;;;;;10154429;28;20605;-70
2022/10/26 11:14:29;;;;;;;38.28;35.90;;;;;;;;;;10163565;28;20048;-70
2022/10/26 11:19:25;;;;;;;38.33;35.70;;;;;;;;;;10164404;28;20038;-69
2022/10/26 11:24:27;;;;;;;35.72;33.22;;;;;;;;;;10168478;28;20048;-70
2022/10/26 11:29:33;;;;;;;34.88;32.45;;;;;;;;;;10156303;28;20050;-70
2022/10/26 11:34:37;;;;;;;31.70;29.50;;;;;;;;;;10155260;28;20039;-69
2022/10/26 11:39:37;;;;;;;32.85;30.45;;;;;;;;;;10154083;28;20047;-70
2022/10/26 11:44:41;;;;;;;32.42;30.30;;;;;;;;;;10155621;28;20049;-70
2022/10/26 11:50:01;;;;;;;33.05;30.65;;;;;;;;;;10170237;28;20045;-70
2022/10/26 11:55:00;;;;;;;32.63;30.27;;;;;;;;;;10156389;28;20377;-69
2022/10/26 12:00:00;;;;;;;30.02;27.92;;;;;;;;;;10154987;28;20053;-70
2022/10/26 12:05:03;;;;;;;32.08;29.98;;;;;;;;;;10155964;28;20132;-70
2022/10/26 12:10:01;;;;;;;28.38;26.40;;;;;;;;;;10150757;28;20047;-70
2022/10/26 12:15:16;;;;;;;23.05;21.30;;;;;;;;;;10166160;28;20043;-70
2022/10/26 12:20:15;;;;;;;22.80;20.90;;;;;;;;;;10171618;28;20061;-70
2022/10/26 12:25:14;;;;;;;21.55;19.75;;;;;;;;;;10170967;28;20060;-70
2022/10/26 12:30:10;;;;;;;18.63;17.20;;;;;;;;;;10163037;28;20561;-70
2022/10/26 12:35:27;;;;;;;19.98;18.27;;;;;;;;;;10159282;28;20059;-69
2022/10/26 12:40:31;;;;;;;18.67;17.05;;;;;;;;;;10152845;28;20047;-69
2022/10/26 12:45:27;;;;;;;17.55;16.02;;;;;;;;;;10158383;28;20418;-70
2022/10/26 12:50:23;;;;;;;16.35;14.75;;;;;;;;;;10163996;28;20049;-70
2022/10/26 12:55:38;;;;;;;14.20;13.07;;;;;;;;;;10163564;28;20053;-70
2022/10/26 13:00:37;;;;;;;13.30;12.30;;;;;;;;;;10171489;28;20413;-70
2022/10/26 13:05:57;;;;;;;13.43;12.20;;;;;;;;;;10144440;28;20054;-70
2022/10/26 13:11:04;;;;;;;13.38;12.13;;;;;;;;;;10164249;28;20053;-70
2022/10/26 13:16:00;;;;;;;12.82;11.82;;;;;;;;;;10164403;28;20052;-70
2022/10/26 13:21:08;;;;;;;12.75;11.45;;;;;;;;;;10175118;28;20403;-70
2022/10/26 13:26:06;;;;;;;12.20;11.30;;;;;;;;;;10150856;28;20046;-70
2022/10/26 13:31:03;;;;;;;13.02;11.82;;;;;;;;;;10150825;28;20053;-70
2022/10/26 13:36:00;;;;;;;12.23;11.23;;;;;;;;;;10170436;28;20041;-70
2022/10/26 13:41:09;;;;;;;11.80;10.63;;;;;;;;;;10154993;28;20050;-70
2022/10/26 13:46:05;;;;;;;11.63;10.52;;;;;;;;;;10159152;28;20054;-70
2022/10/26 13:51:03;;;;;;;11.85;10.57;;;;;;;;;;10171635;28;20047;-70
2022/10/26 13:56:02;;;;;;;11.95;10.95;;;;;;;;;;10163716;28;20052;-70
2022/10/26 14:01:12;;;;;;;15.10;12.77;;;;;;;;;;10154182;28;20064;-70
2022/10/26 14:06:11;;;;;;;12.68;11.60;;;;;;;;;;10163576;28;20058;-70
2022/10/26 14:11:11;;;;;;;14.07;13.00;;;;;;;;;;10177373;28;20050;-69
2022/10/26 14:16:08;;;;;;;14.95;13.75;;;;;;;;;;10172005;28;20047;-70
2022/10/26 14:21:17;;;;;;;16.45;14.98;;;;;;;;;;10188983;28;20070;-70
2022/10/26 14:26:27;;;;;;;16.20;14.80;;;;;;;;;;10171100;28;20569;-70
2022/10/26 14:31:25;;;;;;;16.30;15.00;;;;;;;;;;10176429;28;20062;-69
2022/10/26 14:36:25;;;;;;;16.50;15.07;;;;;;;;;;10161452;28;20428;-70
2022/10/26 14:41:21;;;;;;;17.50;15.98;;;;;;;;;;10176543;28;20042;-70
2022/10/26 14:46:18;;;;;;;16.75;15.55;;;;;;;;;;10167303;28;20058;-69
2022/10/26 14:51:16;;;;;;;17.38;16.08;;;;;;;;;;10174953;28;20046;-70
2022/10/26 14:56:23;;;;;;;18.02;16.55;;;;;;;;;;10162106;28;20042;-70
2022/10/26 15:01:22;;;;;;;17.80;16.25;;;;;;;;;;10177172;28;20539;-69
2022/10/26 15:06:28;;;;;;;17.05;15.73;;;;;;;;;;10180845;28;20052;-69
2022/10/26 15:11:25;;;;;;;15.85;14.52;;;;;;;;;;10147213;28;20042;-70
2022/10/26 15:16:26;;;;;;;17.17;15.98;;;;;;;;;;10155744;28;20042;-70
2022/10/26 15:21:30;;;;;;;34.55;18.15;;;;;;;;;;10158147;28;20070;-70
2022/10/26 15:26:27;;;;;;;20.08;18.67;;;;;;;;;;10152785;28;20046;-70
2022/10/26 15:31:28;;;;;;;21.75;20.25;;;;;;;;;;10152256;28;20045;-70
2022/10/26 15:36:25;;;;;;;23.88;22.10;;;;;;;;;;10165467;28;20464;-69
2022/10/26 15:41:24;;;;;;;23.90;22.25;;;;;;;;;;10171941;28;20055;-70
2022/10/26 15:46:21;;;;;;;23.10;21.52;;;;;;;;;;10155393;28;20509;-70
2022/10/26 15:51:17;;;;;;;26.75;24.52;;;;;;;;;;10164572;28;20044;-70
2022/10/26 15:56:17;;;;;;;27.10;25.30;;;;;;;;;;10157837;28;20042;-70
2022/10/26 16:01:24;;;;;;;29.42;27.52;;;;;;;;;;10172010;28;20420;-70
2022/10/26 16:06:26;;;;;;;30.35;28.25;;;;;;;;;;10151471;28;20042;-71
2022/10/26 16:11:22;;;;;;;34.75;32.45;;;;;;;;;;10141997;28;20051;-70
2022/10/26 16:16:19;;;;;;;38.42;35.88;;;;;;;;;;10160170;28;20736;-69
2022/10/26 16:21:16;;;;;;;41.17;38.60;;;;;;;;;;10137285;28;20416;-69
2022/10/26 16:26:12;;;;;;;44.83;42.00;;;;;;;;;;10152218;28;20046;-70
2022/10/26 16:31:13;;;;;;;47.88;45.17;;;;;;;;;;10146825;28;20757;-70
2022/10/26 16:36:10;;;;;;;54.83;51.72;;;;;;;;;;10156810;28;20504;-70
2022/10/26 16:41:10;;;;;;;51.53;48.53;;;;;;;;;;10162492;28;20054;-70
2022/10/26 16:46:08;;;;;;;55.67;52.38;;;;;;;;;;10156420;28;20073;-70
2022/10/26 16:51:06;;;;;;;59.58;55.97;;;;;;;;;;10146479;28;20046;-70
2022/10/26 16:56:06;;;;;;;65.15;61.22;;;;;;;;;;10122853;28;20046;-69
2022/10/26 17:01:04;;;;;;;67.75;63.85;;;;;;;;;;10120867;28;20046;-70
2022/10/26 17:06:04;;;;;;;72.55;68.18;;;;;;;;;;10141554;28;20086;-70
2022/10/26 17:11:02;;;;;;;75.82;71.55;;;;;;;;;;10110649;28;20596;-70
2022/10/26 17:16:03;;;;;;;82.45;77.68;;;;;;;;;;10149322;28;20520;-71
2022/10/26 17:20:59;;;;;;;85.53;80.53;;;;;;;;;;10150447;28;20061;-70
2022/10/26 17:25:59;;;;;;;90.65;85.55;;;;;;;;;;10147448;28;20046;-70
2022/10/26 17:31:06;;;;;;;86.18;81.13;;;;;;;;;;10141239;28;20046;-70
2022/10/26 17:36:03;;;;;;;92.25;87.30;;;;;;;;;;10160315;28;20049;-70
2022/10/26 17:41:01;;;;;;;98.00;92.50;;;;;;;;;;10156121;28;20446;-70
2022/10/26 17:46:01;;;;;;;97.95;92.53;;;;;;;;;;10154572;28;20038;-70
2022/10/26 17:50:58;;;;;;;97.05;91.88;;;;;;;;;;10152236;28;20498;-70
2022/10/26 17:56:03;;;;;;;112.78;106.70;;;;;;;;;;10145577;28;20404;-70
2022/10/26 18:01:03;;;;;;;103.15;97.65;;;;;;;;;;10164313;28;20516;-70
2022/10/26 18:06:00;;;;;;;111.57;105.45;;;;;;;;;;10155215;28;20053;-70
2022/10/26 18:10:57;;;;;;;100.43;94.80;;;;;;;;;;10140137;28;20692;-71
2022/10/26 18:15:54;;;;;;;105.20;99.43;;;;;;;;;;10156742;28;20117;-72
2022/10/26 18:20:50;;;;;;;104.20;98.65;;;;;;;;;;10158152;28;20044;-70
2022/10/26 18:25:46;;;;;;;100.07;94.88;;;;;;;;;;10155947;28;20477;-71
2022/10/26 18:30:42;;;;;;;96.70;91.55;;;;;;;;;;10152714;28;20058;-70
2022/10/26 18:35:39;;;;;;;92.80;87.70;;;;;;;;;;10162092;28;20579;-70
2022/10/26 18:40:35;;;;;;;90.60;85.50;;;;;;;;;;10160495;28;20045;-71
2022/10/26 18:45:31;;;;;;;87.35;82.63;;;;;;;;;;10151536;28;20072;-71
2022/10/26 18:50:28;;;;;;;84.68;80.25;;;;;;;;;;10163377;28;20054;-71
2022/10/26 18:55:24;;;;;;;88.47;83.78;;;;;;;;;;10154088;28;20055;-71
2022/10/26 19:00:20;;;;;;;92.32;87.38;;;;;;;;;;10137989;28;20044;-70
2022/10/26 19:05:17;;;;;;;96.75;91.60;;;;;;;;;;10139428;28;20072;-71
2022/10/26 19:10:13;;;;;;;93.75;88.80;;;;;;;;;;10164722;28;20454;-71
2022/10/26 19:15:09;;;;;;;96.75;91.70;;;;;;;;;;10158939;28;20053;-71
2022/10/26 19:20:06;;;;;;;100.10;94.53;;;;;;;;;;10147037;28;20057;-71
2022/10/26 19:25:02;;;;;;;108.05;102.18;;;;;;;;;;10128814;28;20057;-71
2022/10/26 19:29:59;;;;;;;109.45;103.30;;;;;;;;;;10152657;28;20056;-71
2022/10/26 19:34:55;;;;;;;109.70;103.85;;;;;;;;;;10154982;28;20042;-70
2022/10/26 19:39:51;;;;;;;118.93;112.40;;;;;;;;;;10159171;28;20243;-71
2022/10/26 19:44:47;;;;;;;124.43;117.95;;;;;;;;;;10161719;28;20053;-70
2022/10/26 19:49:43;;;;;;;126.30;119.53;;;;;;;;;;10157554;28;20054;-70
2022/10/26 19:54:40;;;;;;;126.85;119.78;;;;;;;;;;10160061;28;20238;-70
2022/10/26 19:59:36;;;;;;;124.18;117.55;;;;;;;;;;10151067;28;20034;-70
2022/10/26 20:04:32;;;;;;;122.30;115.45;;;;;;;;;;10154897;28;20042;-70
2022/10/26 20:09:30;;;;;;;127.07;120.18;;;;;;;;;;10162623;28;20105;-70
2022/10/26 20:14:26;;;;;;;127.20;120.10;;;;;;;;;;10151685;28;20045;-70
2022/10/26 20:19:22;;;;;;;129.02;121.88;;;;;;;;;;10170032;28;20403;-70
2022/10/26 20:24:18;;;;;;;127.78;120.53;;;;;;;;;;10171139;28;20567;-70
2022/10/26 20:29:15;;;;;;;130.10;122.53;;;;;;;;;;10163677;28;20049;-70
2022/10/26 20:34:11;;;;;;;128.25;120.95;;;;;;;;;;10171211;28;20936;-70
2022/10/26 20:39:07;;;;;;;135.95;128.32;;;;;;;;;;10168288;28;20041;-70
2022/10/26 20:44:03;;;;;;;141.50;132.35;;;;;;;;;;10151911;28;20258;-71
2022/10/26 20:49:00;;;;;;;134.98;126.97;;;;;;;;;;10158999;28;20041;-70
2022/10/26 20:54:08;;;;;;;138.20;130.38;;;;;;;;;;10148076;28;20491;-70
2022/10/26 20:59:08;;;;;;;133.23;125.35;;;;;;;;;;10151911;28;20045;-70
2022/10/26 21:04:05;;;;;;;134.35;126.80;;;;;;;;;;10160058;28;20057;-71
2022/10/26 21:09:01;;;;;;;144.10;135.93;;;;;;;;;;10141484;28;20042;-70
2022/10/26 21:13:59;;;;;;;141.38;132.93;;;;;;;;;;10134805;28;20049;-70
2022/10/26 21:18:55;;;;;;;132.68;125.05;;;;;;;;;;10143462;28;20043;-70
2022/10/26 21:23:52;;;;;;;144.52;136.00;;;;;;;;;;10145005;28;20046;-70
2022/10/26 21:28:48;;;;;;;139.95;131.95;;;;;;;;;;10137865;28;20061;-70
2022/10/26 21:33:44;;;;;;;143.02;134.93;;;;;;;;;;10136519;28;20493;-70
2022/10/26 21:38:42;;;;;;;136.68;128.75;;;;;;;;;;10143660;28;20046;-70
2022/10/26 21:43:39;;;;;;;142.93;134.60;;;;;;;;;;10162101;28;20053;-70
2022/10/26 21:48:35;;;;;;;145.48;137.18;;;;;;;;;;10163076;28;20521;-70
2022/10/26 21:53:31;;;;;;;142.07;133.82;;;;;;;;;;10160170;28;20047;-70
2022/10/26 21:58:28;;;;;;;150.02;140.82;;;;;;;;;;10165107;28;20039;-70
2022/10/26 22:03:24;;;;;;;149.35;140.55;;;;;;;;;;10146624;28;20508;-70
2022/10/26 22:08:20;;;;;;;147.23;138.65;;;;;;;;;;10173555;28;20053;-69
2022/10/26 22:13:17;;;;;;;141.85;133.48;;;;;;;;;;10177199;28;20038;-70
2022/10/26 22:18:13;;;;;;;144.90;136.38;;;;;;;;;;10177511;28;20048;-70
2022/10/26 22:23:09;;;;;;;148.10;139.40;;;;;;;;;;10169585;28;20060;-70
2022/10/26 22:28:06;;;;;;;148.38;139.73;;;;;;;;;;10172451;28;20041;-70
2022/10/26 22:33:02;;;;;;;142.45;133.95;;;;;;;;;;10173462;28;20050;-70
2022/10/26 22:37:58;;;;;;;137.35;129.43;;;;;;;;;;10168504;28;20661;-70
2022/10/26 22:42:54;;;;;;;138.93;130.23;;;;;;;;;;10170154;28;20058;-70
2022/10/26 22:47:50;;;;;;;145.30;136.75;;;;;;;;;;10167967;28;20126;-70
2022/10/26 22:52:47;;;;;;;135.27;127.18;;;;;;;;;;10164488;28;20052;-70
2022/10/26 22:57:43;;;;;;;139.27;130.65;;;;;;;;;;10156063;28;20050;-70
2022/10/26 23:02:39;;;;;;;143.63;135.05;;;;;;;;;;10164017;28;20057;-70
2022/10/26 23:07:36;;;;;;;141.05;132.65;;;;;;;;;;10152696;28;20050;-70
2022/10/26 23:12:32;;;;;;;143.05;134.60;;;;;;;;;;10177203;28;20038;-70
2022/10/26 23:17:28;;;;;;;139.35;130.93;;;;;;;;;;10169616;28;20048;-69
2022/10/26 23:22:24;;;;;;;139.98;131.13;;;;;;;;;;10177025;28;20037;-69
2022/10/26 23:27:20;;;;;;;137.43;129.23;;;;;;;;;;10156799;28;20049;-69
2022/10/26 23:32:17;;;;;;;142.35;133.50;;;;;;;;;;10155425;28;20043;-69
2022/10/26 23:37:13;;;;;;;138.55;130.27;;;;;;;;;;10160911;28;20046;-69
2022/10/26 23:42:10;;;;;;;137.65;129.50;;;;;;;;;;10164297;28;20049;-69
2022/10/26 23:47:06;;;;;;;140.57;131.95;;;;;;;;;;10168229;28;20499;-69
2022/10/26 23:52:02;;;;;;;144.52;135.82;;;;;;;;;;10166241;28;20044;-69
2022/10/26 23:56:58;;;;;;;142.68;134.38;;;;;;;;;;10155564;28;20041;-69
